Time;durP1;ratioP1;P1;durP2;ratioP2;P2;SDS_P1;SDS_P2;PMS_P1;PMS_P2;Temp;Humidity;BMP_temperature;BMP_pressure;BME280_temperature;BME280_humidity;BME280_pressure;Samples;Min_cycle;Max_cycle;Signal;HPM_P1;HPM_P2
2022/02/23 00:04:53;;;;;;;14.10;3.53;;;;;;;5.88;64.46;100411.28;10390158;28;20128;-67
2022/02/23 00:09:55;;;;;;;18.15;3.55;;;;;;;5.89;64.51;100428.53;10390608;28;20349;-67
2022/02/23 00:14:57;;;;;;;15.40;3.10;;;;;;;5.81;64.56;100449.56;10390667;28;20143;-66
2022/02/23 00:19:59;;;;;;;14.38;3.45;;;;;;;5.79;64.79;100453.97;10389563;28;20063;-67
2022/02/23 00:25:03;;;;;;;21.48;3.92;;;;;;;5.82;64.75;100458.22;10389751;28;20065;-66
2022/02/23 00:30:05;;;;;;;19.05;3.67;;;;;;;5.72;65.03;100469.75;10388542;28;20510;-67
2022/02/23 00:35:07;;;;;;;19.10;3.78;;;;;;;5.65;65.18;100476.03;10388789;28;20057;-66
2022/02/23 00:40:09;;;;;;;20.38;3.92;;;;;;;5.60;65.54;100475.31;10388369;28;20053;-67
2022/02/23 00:45:11;;;;;;;25.50;4.20;;;;;;;5.55;65.60;100489.28;10388808;28;20580;-67
2022/02/23 00:50:13;;;;;;;19.85;3.60;;;;;;;5.59;65.59;100499.59;10388806;28;20057;-66
2022/02/23 00:55:15;;;;;;;18.33;3.45;;;;;;;5.69;65.51;100504.44;10387792;28;20052;-66
2022/02/23 01:00:17;;;;;;;22.33;3.65;;;;;;;5.69;65.60;100501.00;10386694;28;20764;-66
2022/02/23 01:05:19;;;;;;;16.98;3.40;;;;;;;5.75;65.47;100503.41;10387138;28;20042;-66
2022/02/23 01:10:20;;;;;;;21.83;4.05;;;;;;;5.73;65.67;100500.88;10387966;28;20401;-66
2022/02/23 01:15:23;;;;;;;17.60;3.80;;;;;;;5.79;65.66;100498.06;10386661;28;20601;-66
2022/02/23 01:20:25;;;;;;;23.73;4.47;;;;;;;5.73;65.86;100506.06;10386776;28;20075;-66
2022/02/23 01:25:28;;;;;;;22.05;3.30;;;;;;;5.65;65.96;100513.22;10386722;28;20412;-67
2022/02/23 01:30:33;;;;;;;14.65;3.20;;;;;;;5.61;66.02;100509.03;10385523;28;20064;-66
2022/02/23 01:35:36;;;;;;;16.23;3.80;;;;;;;5.52;66.22;100519.66;10386620;28;20041;-66
2022/02/23 01:40:37;;;;;;;18.58;3.53;;;;;;;5.47;66.21;100524.16;10386136;28;20144;-66
2022/02/23 01:45:39;;;;;;;18.98;3.72;;;;;;;5.34;66.15;100533.19;10386328;28;20058;-67
2022/02/23 01:50:44;;;;;;;19.08;3.38;;;;;;;5.21;66.48;100540.44;10384630;28;20060;-67
2022/02/23 01:55:46;;;;;;;16.63;3.47;;;;;;;5.21;67.16;100549.97;10385990;28;20052;-67
2022/02/23 02:00:47;;;;;;;20.05;3.70;;;;;;;5.32;67.31;100558.31;10385560;28;21414;-66
2022/02/23 02:05:49;;;;;;;22.88;3.83;;;;;;;5.43;67.33;100561.47;10385144;28;20141;-66
2022/02/23 02:10:51;;;;;;;17.25;3.90;;;;;;;5.43;67.56;100564.06;10385256;28;20486;-66
2022/02/23 02:15:53;;;;;;;17.88;3.47;;;;;;;5.47;67.47;100579.47;10385020;28;20059;-66
2022/02/23 02:20:54;;;;;;;13.40;3.67;;;;;;;5.58;67.47;100586.94;10384760;28;20054;-66
2022/02/23 02:25:56;;;;;;;21.92;4.03;;;;;;;5.82;66.86;100600.97;10384827;28;20601;-67
2022/02/23 02:30:58;;;;;;;19.90;3.78;;;;;;;5.93;66.64;100604.94;10384337;28;20500;-66
2022/02/23 02:35:59;;;;;;;17.02;3.28;;;;;;;6.05;66.00;100606.28;10384665;28;20049;-66
2022/02/23 02:41:01;;;;;;;19.38;4.18;;;;;;;6.11;65.83;100612.16;10384727;28;20081;-67
2022/02/23 02:46:03;;;;;;;19.00;4.10;;;;;;;6.05;65.70;100614.94;10384545;28;20074;-67
2022/02/23 02:51:04;;;;;;;18.95;4.20;;;;;;;5.92;65.48;100612.78;10381683;28;20812;-66
2022/02/23 02:56:06;;;;;;;16.40;3.58;;;;;;;5.77;65.62;100624.44;10384538;28;20060;-66
2022/02/23 03:01:09;;;;;;;17.67;3.97;;;;;;;5.67;65.58;100623.03;10387757;28;20056;-66
2022/02/23 03:06:11;;;;;;;20.55;3.78;;;;;;;5.59;65.48;100635.38;10399454;28;20129;-67
2022/02/23 03:11:13;;;;;;;17.70;3.75;;;;;;;5.43;65.51;100647.88;10400019;28;20143;-67
2022/02/23 03:16:15;;;;;;;16.30;3.53;;;;;;;5.36;65.59;100643.78;10391591;28;20052;-67
2022/02/23 03:21:17;;;;;;;19.00;3.53;;;;;;;5.26;65.83;100654.44;10399977;28;20123;-67
2022/02/23 03:26:18;;;;;;;16.13;3.88;;;;;;;5.16;66.20;100661.63;10399559;28;20136;-66
2022/02/23 03:31:20;;;;;;;15.73;3.28;;;;;;;5.07;66.19;100659.25;10398952;28;20059;-66
2022/02/23 03:36:22;;;;;;;18.75;3.88;;;;;;;5.04;66.30;100663.66;10398710;28;20049;-66
2022/02/23 03:41:23;;;;;;;22.10;3.75;;;;;;;4.98;66.34;100667.28;10398477;28;20045;-66
2022/02/23 03:46:25;;;;;;;15.55;3.10;;;;;;;4.90;66.34;100674.38;10398648;28;20580;-66
2022/02/23 03:51:27;;;;;;;18.80;3.30;;;;;;;4.92;66.35;100684.72;10398321;28;20414;-66
2022/02/23 03:56:42;;;;;;;16.92;3.70;;;;;;;4.91;66.28;100691.63;10397718;28;20499;-66
2022/02/23 04:01:46;;;;;;;16.65;3.42;;;;;;;4.88;66.11;100701.22;10396796;28;20129;-66
2022/02/23 04:06:49;;;;;;;18.85;3.58;;;;;;;4.87;66.12;100709.88;10391883;28;20045;-66
2022/02/23 04:11:51;;;;;;;16.48;3.50;;;;;;;4.88;66.01;100725.41;10388914;28;20139;-66
2022/02/23 04:16:53;;;;;;;20.65;3.65;;;;;;;4.89;65.92;100740.06;10390104;28;20071;-66
2022/02/23 04:21:55;;;;;;;18.50;3.30;;;;;;;4.84;65.81;100754.03;10389016;28;20568;-67
2022/02/23 04:26:56;;;;;;;14.77;3.47;;;;;;;4.66;66.27;100770.81;10388323;28;20049;-66
2022/02/23 04:31:58;;;;;;;13.60;3.17;;;;;;;4.61;66.33;100772.69;10389877;28;20061;-66
2022/02/23 04:37:00;;;;;;;18.17;3.28;;;;;;;4.55;66.31;100776.25;10388715;28;20124;-67
2022/02/23 04:42:05;;;;;;;12.93;2.95;;;;;;;4.45;66.36;100789.44;10390094;28;20133;-66
2022/02/23 04:47:07;;;;;;;15.82;3.22;;;;;;;4.29;66.43;100801.84;10389905;28;20050;-67
2022/02/23 04:52:09;;;;;;;21.55;3.78;;;;;;;4.27;66.91;100810.53;10389287;28;20528;-67
2022/02/23 04:57:11;;;;;;;17.50;3.60;;;;;;;4.29;66.68;100811.38;10390093;28;20053;-67
2022/02/23 05:02:12;;;;;;;15.57;3.38;;;;;;;4.24;66.62;100816.63;10388776;28;20593;-66
2022/02/23 05:07:18;;;;;;;20.48;3.83;;;;;;;4.21;66.59;100819.25;10379039;28;20264;-67
2022/02/23 05:12:20;;;;;;;21.20;5.78;;;;;;;4.12;66.73;100829.81;10388781;28;20064;-66
2022/02/23 05:17:22;;;;;;;18.83;5.40;;;;;;;4.05;66.95;100832.56;10388681;28;20049;-67
2022/02/23 05:22:24;;;;;;;26.58;12.70;;;;;;;4.00;66.60;100843.00;10387623;28;20467;-68
2022/02/23 05:27:25;;;;;;;39.22;17.73;;;;;;;3.79;67.23;100845.91;10387301;28;20138;-67
2022/02/23 05:32:27;;;;;;;19.85;6.35;;;;;;;3.73;67.33;100853.78;10386022;28;20058;-67
2022/02/23 05:37:29;;;;;;;16.70;4.40;;;;;;;3.70;67.29;100859.84;10387029;28;20131;-67
2022/02/23 05:42:31;;;;;;;13.90;3.67;;;;;;;3.75;67.29;100862.38;10387394;28;20084;-67
2022/02/23 05:47:33;;;;;;;18.73;4.70;;;;;;;3.70;67.44;100872.78;10386631;28;20124;-67
2022/02/23 05:52:35;;;;;;;26.58;4.50;;;;;;;3.68;67.39;100877.13;10386495;28;20056;-67
2022/02/23 05:57:37;;;;;;;19.40;4.47;;;;;;;3.61;67.12;100890.22;10387012;28;20099;-67
2022/02/23 06:02:39;;;;;;;14.25;3.80;;;;;;;3.44;67.21;100887.03;10386293;28;20425;-67
2022/02/23 06:07:41;;;;;;;19.83;4.35;;;;;;;3.24;67.43;100887.34;10386576;28;20053;-66
2022/02/23 06:12:42;;;;;;;22.38;4.70;;;;;;;3.11;67.58;100901.28;10385660;28;20077;-66
2022/02/23 06:17:44;;;;;;;21.17;4.95;;;;;;;2.99;67.81;100904.91;10386401;28;20444;-68
2022/02/23 06:22:46;;;;;;;15.60;3.95;;;;;;;2.92;67.97;100918.81;10384577;28;20557;-66
2022/02/23 06:27:48;;;;;;;18.30;4.55;;;;;;;2.83;68.11;100918.06;10377785;28;20049;-68
2022/02/23 06:32:49;;;;;;;21.85;4.32;;;;;;;2.76;68.21;100927.63;10382171;28;20060;-67
2022/02/23 06:37:52;;;;;;;23.88;5.88;;;;;;;2.70;68.13;100924.25;10374308;28;20056;-68
2022/02/23 06:42:54;;;;;;;21.13;5.28;;;;;;;2.68;68.19;100933.75;10384374;28;20117;-67
2022/02/23 06:47:56;;;;;;;17.23;3.90;;;;;;;2.71;68.14;100925.94;10385663;28;20049;-67
2022/02/23 06:53:00;;;;;;;23.58;4.78;;;;;;;2.70;68.10;100932.00;10385287;28;20049;-67
2022/02/23 06:58:02;;;;;;;21.90;4.30;;;;;;;2.72;68.30;100936.28;10385343;28;20492;-67
2022/02/23 07:03:10;;;;;;;19.25;4.05;;;;;;;2.86;68.21;100942.13;10381774;28;20446;-67
2022/02/23 07:08:12;;;;;;;19.13;4.22;;;;;;;2.92;68.05;100949.81;10384100;28;20083;-67
2022/02/23 07:13:14;;;;;;;24.73;4.13;;;;;;;3.07;68.03;100958.25;10384873;28;20053;-67
2022/02/23 07:18:15;;;;;;;13.57;3.42;;;;;;;3.12;67.94;100971.94;10384394;28;20072;-67
2022/02/23 07:23:17;;;;;;;18.45;4.13;;;;;;;3.16;68.04;100976.19;10383554;28;20057;-67
2022/02/23 07:28:19;;;;;;;17.55;3.83;;;;;;;3.20;67.87;100986.47;10383033;28;20059;-67
2022/02/23 07:33:42;;;;;;;17.15;3.65;;;;;;;3.25;68.20;100994.19;10384095;28;20064;-67
2022/02/23 07:38:47;;;;;;;17.17;3.47;;;;;;;3.44;67.84;100991.31;10384027;28;20164;-67
2022/02/23 07:43:50;;;;;;;19.65;3.22;;;;;;;3.61;67.82;101001.44;10383598;28;20131;-67
2022/02/23 07:48:58;;;;;;;18.80;3.97;;;;;;;3.76;67.52;101001.22;10388989;28;20406;-67
2022/02/23 07:53:59;;;;;;;15.18;3.92;;;;;;;4.06;66.94;101010.25;10389070;28;20049;-66
2022/02/23 07:59:01;;;;;;;20.65;4.28;;;;;;;4.31;66.34;101007.22;10391113;28;20150;-66
2022/02/23 08:04:05;;;;;;;15.27;3.72;;;;;;;4.37;66.07;101016.66;10390809;28;20087;-67
2022/02/23 08:09:10;;;;;;;14.63;3.58;;;;;;;4.58;65.80;101019.69;10390655;28;20053;-66
2022/02/23 08:14:13;;;;;;;18.67;4.03;;;;;;;4.69;65.38;101024.69;10390473;28;20152;-66
2022/02/23 08:19:33;;;;;;;21.65;3.85;;;;;;;4.82;65.06;101026.16;10390669;28;20055;-67
2022/02/23 08:24:39;;;;;;;18.35;4.10;;;;;;;5.09;64.59;101024.75;10388714;28;20049;-67
2022/02/23 08:29:41;;;;;;;16.92;3.80;;;;;;;5.39;64.21;101037.97;10389433;28;20057;-64
2022/02/23 08:34:45;;;;;;;16.20;3.65;;;;;;;5.65;63.68;101027.03;10390168;28;20124;-64
2022/02/23 08:39:48;;;;;;;17.25;3.65;;;;;;;5.99;62.94;101021.91;10389693;28;20049;-64
2022/02/23 08:44:50;;;;;;;15.13;3.53;;;;;;;6.17;62.26;101017.13;10389746;28;20049;-64
2022/02/23 08:49:52;;;;;;;15.98;3.40;;;;;;;6.32;61.62;101018.53;10387973;28;20049;-65
2022/02/23 08:54:54;;;;;;;15.70;3.40;;;;;;;6.48;61.37;101018.97;10383881;28;20059;-65
2022/02/23 08:59:56;;;;;;;18.65;3.78;;;;;;;6.79;60.58;101022.50;10388624;28;20395;-64
2022/02/23 09:04:57;;;;;;;15.05;3.45;;;;;;;6.77;60.18;101021.69;10388372;28;20046;-65
2022/02/23 09:09:59;;;;;;;19.00;3.50;;;;;;;7.19;59.68;101010.06;10373107;28;20065;-64
2022/02/23 09:15:01;;;;;;;17.73;3.75;;;;;;;7.49;58.70;101010.94;10389310;28;20053;-65
2022/02/23 09:20:03;;;;;;;14.25;3.35;;;;;;;7.60;58.27;101020.13;10388488;28;20057;-65
2022/02/23 09:25:06;;;;;;;17.30;3.42;;;;;;;7.90;57.57;101019.16;10387447;28;20170;-64
2022/02/23 09:30:11;;;;;;;16.13;3.15;;;;;;;8.03;56.79;101015.28;10387548;28;20572;-65
2022/02/23 09:35:13;;;;;;;19.70;3.53;;;;;;;8.06;56.40;101014.31;10387805;28;20052;-65
2022/02/23 09:40:15;;;;;;;16.83;3.58;;;;;;;8.18;56.07;101020.94;10385760;28;20128;-65
2022/02/23 09:45:17;;;;;;;16.08;3.28;;;;;;;8.36;55.46;101013.38;10388091;28;20140;-64
2022/02/23 09:50:20;;;;;;;16.23;3.15;;;;;;;8.42;54.95;101012.28;10385938;28;20053;-65
2022/02/23 09:55:22;;;;;;;14.50;3.60;;;;;;;8.56;55.23;101005.72;10386895;28;20049;-65
2022/02/23 10:00:25;;;;;;;20.67;4.35;;;;;;;8.66;54.90;100996.66;10387665;28;20067;-65
2022/02/23 10:05:27;;;;;;;16.17;3.20;;;;;;;8.90;54.95;100996.69;10387275;28;20049;-65
2022/02/23 10:10:34;;;;;;;16.98;3.70;;;;;;;9.33;53.92;101000.28;10384720;28;20053;-65
2022/02/23 10:15:43;;;;;;;11.65;3.17;;;;;;;9.34;52.40;100996.75;10386901;28;20497;-65
2022/02/23 10:20:46;;;;;;;16.08;3.60;;;;;;;9.33;53.25;100995.06;10387016;28;20409;-65
2022/02/23 10:25:58;;;;;;;15.90;3.45;;;;;;;9.27;52.01;100997.91;10385487;28;20560;-65
2022/02/23 10:31:03;;;;;;;14.75;3.17;;;;;;;9.34;52.20;100995.91;10386958;28;20101;-65
2022/02/23 10:36:16;;;;;;;16.88;3.30;;;;;;;9.45;50.96;100997.19;10387360;28;20557;-64
2022/02/23 10:41:31;;;;;;;17.80;3.50;;;;;;;9.58;49.76;100998.41;10385690;28;20052;-65
2022/02/23 10:46:35;;;;;;;17.90;3.20;;;;;;;9.67;50.51;100992.03;10386547;28;20414;-65
2022/02/23 10:51:38;;;;;;;15.63;3.28;;;;;;;9.84;50.15;100989.59;10382954;28;20084;-64
2022/02/23 10:56:42;;;;;;;13.40;2.70;;;;;;;9.85;49.46;100983.44;10385404;28;20136;-65
2022/02/23 11:01:47;;;;;;;15.32;3.38;;;;;;;9.94;49.44;100982.25;10385547;28;20103;-65
2022/02/23 11:06:51;;;;;;;14.25;3.15;;;;;;;9.85;48.98;100985.25;10383716;28;21127;-65
2022/02/23 11:11:53;;;;;;;11.23;3.00;;;;;;;9.72;49.21;100973.56;10385480;28;20584;-65
2022/02/23 11:16:59;;;;;;;14.55;2.75;;;;;;;9.76;48.82;100982.97;10385216;28;20905;-63
2022/02/23 11:22:03;;;;;;;13.38;3.35;;;;;;;9.69;48.65;100971.09;10387111;28;20490;-65
2022/02/23 11:27:11;;;;;;;13.48;3.17;;;;;;;9.64;48.51;100963.41;10393444;28;20132;-65
2022/02/23 11:32:13;;;;;;;9.95;2.55;;;;;;;9.55;48.21;100964.59;10392365;28;20413;-65
2022/02/23 11:37:16;;;;;;;10.93;2.55;;;;;;;9.61;47.72;100953.06;10391633;28;20537;-65
2022/02/23 11:42:22;;;;;;;17.58;2.80;;;;;;;9.65;46.91;100957.25;10393473;28;20134;-65
2022/02/23 11:47:28;;;;;;;10.35;2.60;;;;;;;9.85;47.03;100948.66;10388710;28;20080;-65
2022/02/23 11:52:30;;;;;;;10.68;2.45;;;;;;;10.07;46.37;100944.25;10390406;28;20057;-65
2022/02/23 11:57:47;;;;;;;10.75;2.83;;;;;;;10.27;46.24;100941.66;10391986;28;20051;-64
2022/02/23 12:02:59;;;;;;;10.18;2.97;;;;;;;10.21;44.89;100936.69;10392377;28;20077;-65
2022/02/23 12:08:01;;;;;;;15.88;3.30;;;;;;;10.29;46.48;100922.38;10373252;28;20141;-64
2022/02/23 12:13:04;;;;;;;11.45;3.17;;;;;;;10.23;46.01;100913.94;10391866;28;20053;-64
2022/02/23 12:18:15;;;;;;;10.65;2.47;;;;;;;10.41;44.38;100915.75;10388956;28;20048;-65
2022/02/23 12:23:19;;;;;;;14.70;3.58;;;;;;;10.44;46.31;100907.75;10388880;28;20157;-65
2022/02/23 12:28:30;;;;;;;8.95;2.50;;;;;;;10.55;44.16;100895.06;10391368;28;20140;-65
2022/02/23 12:33:33;;;;;;;9.63;2.45;;;;;;;10.59;45.17;100891.41;10387728;28;20061;-65
2022/02/23 12:38:57;;;;;;;12.05;2.40;;;;;;;10.79;44.73;100893.97;10390147;28;20418;-64
2022/02/23 12:44:08;;;;;;;10.65;2.60;;;;;;;10.79;44.17;100882.66;10390187;28;20053;-65
2022/02/23 12:49:11;;;;;;;10.32;2.38;;;;;;;10.90;43.95;100873.41;10390026;28;20053;-64
2022/02/23 12:54:15;;;;;;;9.98;2.58;;;;;;;10.91;43.45;100863.78;10390327;28;20057;-65
2022/02/23 12:59:19;;;;;;;12.10;2.90;;;;;;;11.16;43.36;100856.50;10390159;28;20060;-65
2022/02/23 13:04:42;;;;;;;9.23;2.53;;;;;;;11.42;41.58;100853.47;10388598;28;20159;-65
2022/02/23 13:09:47;;;;;;;10.77;2.40;;;;;;;11.24;41.13;100842.13;10387755;28;20056;-65
2022/02/23 13:14:57;;;;;;;9.75;2.28;;;;;;;11.44;42.01;100832.47;10388632;28;20127;-65
2022/02/23 13:19:59;;;;;;;9.23;2.30;;;;;;;11.53;41.18;100832.00;10389153;28;20045;-65
2022/02/23 13:25:00;;;;;;;7.35;2.53;;;;;;;11.69;40.86;100830.31;10387046;28;20045;-65
2022/02/23 13:30:22;;;;;;;8.07;2.30;;;;;;;11.52;41.07;100818.03;10389380;28;20061;-65
2022/02/23 13:35:24;;;;;;;12.23;2.65;;;;;;;11.61;41.37;100824.59;10388188;28;20060;-65
2022/02/23 13:40:26;;;;;;;7.18;2.03;;;;;;;11.62;40.25;100810.59;10388037;28;20053;-65
2022/02/23 13:45:29;;;;;;;9.45;2.10;;;;;;;11.78;40.06;100798.41;10387152;28;20497;-65
2022/02/23 13:50:35;;;;;;;8.90;2.10;;;;;;;11.76;39.50;100795.03;10387071;28;20519;-65
2022/02/23 13:55:51;;;;;;;8.32;2.03;;;;;;;11.86;38.46;100791.00;10387643;28;20056;-65
2022/02/23 14:00:55;;;;;;;7.38;1.90;;;;;;;11.87;38.87;100775.19;10386178;28;20049;-65
2022/02/23 14:05:59;;;;;;;7.22;2.20;;;;;;;11.96;38.36;100759.00;10387337;28;20055;-65
2022/02/23 14:11:14;;;;;;;6.15;1.80;;;;;;;11.99;36.85;100753.59;10386837;28;20054;-65
2022/02/23 14:16:18;;;;;;;7.32;1.98;;;;;;;12.12;38.05;100741.53;10386061;28;20049;-66
2022/02/23 14:21:21;;;;;;;8.48;1.80;;;;;;;12.14;37.67;100738.81;10386852;28;20053;-65
2022/02/23 14:26:25;;;;;;;9.10;1.80;;;;;;;12.21;37.24;100721.84;10387028;28;20061;-65
2022/02/23 14:31:34;;;;;;;6.03;1.70;;;;;;;12.30;36.82;100729.22;10384556;28;20065;-65
2022/02/23 14:36:36;;;;;;;6.90;1.73;;;;;;;12.22;36.88;100720.91;10386402;28;20124;-65
2022/02/23 14:41:38;;;;;;;5.60;1.75;;;;;;;12.20;35.91;100712.28;10386064;28;20486;-65
2022/02/23 14:46:40;;;;;;;7.82;1.85;;;;;;;12.23;35.95;100704.25;10384887;28;20131;-65
2022/02/23 14:51:42;;;;;;;5.47;1.35;;;;;;;12.19;35.95;100689.59;10386073;28;20416;-65
2022/02/23 14:56:44;;;;;;;5.93;1.70;;;;;;;12.13;36.29;100684.66;10384445;28;20128;-66
2022/02/23 15:01:46;;;;;;;9.30;1.77;;;;;;;12.08;35.72;100677.06;10384956;28;20136;-66
2022/02/23 15:06:48;;;;;;;15.77;1.83;;;;;;;12.18;35.75;100674.78;10385238;28;20617;-65
2022/02/23 15:11:50;;;;;;;5.43;1.50;;;;;;;12.20;35.52;100669.44;10385739;28;20091;-65
2022/02/23 15:17:02;;;;;;;5.60;2.05;;;;;;;12.02;36.37;100671.31;10385273;28;20067;-66
2022/02/23 15:22:04;;;;;;;6.53;1.67;;;;;;;11.99;36.26;100668.84;10385351;28;20076;-65
2022/02/23 15:27:06;;;;;;;7.90;2.10;;;;;;;11.83;36.34;100654.88;10384218;28;20045;-65
2022/02/23 15:32:08;;;;;;;6.47;2.08;;;;;;;11.68;36.58;100655.69;10383934;28;20418;-65
2022/02/23 15:37:10;;;;;;;5.18;1.63;;;;;;;11.59;37.55;100648.31;10384719;28;20194;-65
2022/02/23 15:42:12;;;;;;;5.38;1.75;;;;;;;11.59;37.02;100637.81;10384558;28;20047;-66
2022/02/23 15:47:13;;;;;;;5.53;1.70;;;;;;;11.43;36.94;100629.09;10384548;28;20056;-66
2022/02/23 15:52:15;;;;;;;5.47;1.88;;;;;;;11.44;37.47;100618.50;10384837;28;20049;-66
2022/02/23 15:57:17;;;;;;;7.15;2.13;;;;;;;11.37;37.59;100608.44;10383899;28;20137;-65
2022/02/23 16:02:20;;;;;;;6.22;2.17;;;;;;;11.29;38.51;100593.97;10383261;28;20041;-65
2022/02/23 16:07:22;;;;;;;9.07;2.40;;;;;;;11.21;38.79;100579.59;10384141;28;20116;-65
2022/02/23 16:12:23;;;;;;;8.23;2.60;;;;;;;11.11;38.51;100584.44;10390917;28;20053;-65
2022/02/23 16:17:25;;;;;;;11.80;4.60;;;;;;;10.91;39.63;100589.00;10391325;28;20129;-65
2022/02/23 16:22:47;;;;;;;12.43;4.38;;;;;;;10.69;39.85;100575.28;10391579;28;20053;-65
2022/02/23 16:27:49;;;;;;;8.57;2.85;;;;;;;10.42;40.26;100569.66;10391371;28;20051;-64
2022/02/23 16:32:51;;;;;;;9.38;2.03;;;;;;;10.09;40.60;100573.91;10389832;28;20064;-65
2022/02/23 16:37:52;;;;;;;7.43;2.22;;;;;;;9.61;41.44;100562.19;10390838;28;20049;-65
2022/02/23 16:42:54;;;;;;;8.82;2.60;;;;;;;9.29;42.67;100554.94;10390301;28;20050;-65
2022/02/23 16:47:56;;;;;;;9.25;2.20;;;;;;;8.98;44.10;100545.91;10390274;28;20838;-65
2022/02/23 16:52:58;;;;;;;7.25;2.35;;;;;;;8.74;44.48;100543.47;10390102;28;20056;-65
2022/02/23 16:58:00;;;;;;;8.48;2.40;;;;;;;8.45;44.89;100542.97;10389468;28;20585;-65
2022/02/23 17:03:02;;;;;;;6.53;2.03;;;;;;;8.22;45.58;100543.09;10390193;28;20868;-65
2022/02/23 17:08:05;;;;;;;9.32;2.35;;;;;;;7.97;46.14;100541.44;10387533;28;20060;-66
2022/02/23 17:13:06;;;;;;;8.05;2.50;;;;;;;7.83;46.63;100535.88;10389545;28;20061;-66
2022/02/23 17:18:08;;;;;;;8.57;2.50;;;;;;;7.66;46.62;100534.84;10388587;28;20959;-65
2022/02/23 17:23:10;;;;;;;8.73;1.90;;;;;;;7.50;47.25;100529.38;10388115;28;20135;-65
2022/02/23 17:28:13;;;;;;;8.15;2.10;;;;;;;7.38;48.00;100524.63;10387992;28;20128;-65
2022/02/23 17:33:15;;;;;;;7.50;2.05;;;;;;;7.26;47.58;100527.69;10388549;28;20518;-64
2022/02/23 17:38:21;;;;;;;10.40;2.10;;;;;;;7.12;48.35;100524.75;10386477;28;20610;-65
2022/02/23 17:43:25;;;;;;;7.25;2.08;;;;;;;6.99;48.93;100529.53;10388307;28;20053;-65
2022/02/23 17:48:26;;;;;;;9.50;2.45;;;;;;;6.88;48.98;100517.81;10387793;28;20053;-64
2022/02/23 17:53:29;;;;;;;8.15;2.38;;;;;;;6.83;49.16;100528.38;10387416;28;20055;-64
2022/02/23 17:58:30;;;;;;;8.95;2.50;;;;;;;6.72;49.29;100514.91;10388420;28;20057;-66
2022/02/23 18:03:35;;;;;;;9.55;2.63;;;;;;;6.67;49.58;100519.41;10386172;28;20068;-65
2022/02/23 18:08:41;;;;;;;7.35;2.25;;;;;;;6.60;50.43;100517.94;10386919;28;20596;-65
2022/02/23 18:13:43;;;;;;;5.65;2.05;;;;;;;6.51;51.32;100509.59;10388229;28;20050;-65
2022/02/23 18:18:45;;;;;;;5.03;2.00;;;;;;;6.34;51.10;100503.22;10386317;28;20064;-65
2022/02/23 18:23:46;;;;;;;7.10;2.80;;;;;;;6.34;51.88;100511.03;10385015;28;20047;-66
2022/02/23 18:28:48;;;;;;;10.48;2.80;;;;;;;6.36;51.11;100503.16;10386015;28;20095;-65
2022/02/23 18:33:52;;;;;;;8.18;2.85;;;;;;;6.25;51.90;100495.72;10385080;28;20067;-65
2022/02/23 18:38:54;;;;;;;9.70;2.30;;;;;;;6.16;52.13;100493.41;10385634;28;20052;-66
2022/02/23 18:43:56;;;;;;;8.98;2.50;;;;;;;6.07;52.54;100488.50;10386721;28;20081;-65
2022/02/23 18:48:58;;;;;;;10.23;2.80;;;;;;;5.94;52.75;100484.59;10385771;28;20050;-65
2022/02/23 18:54:01;;;;;;;9.30;2.70;;;;;;;5.82;52.98;100482.41;10378105;28;20071;-65
2022/02/23 18:59:03;;;;;;;10.68;4.18;;;;;;;5.57;53.28;100491.84;10379771;28;20082;-65
2022/02/23 19:04:07;;;;;;;12.88;5.70;;;;;;;5.38;53.58;100490.69;10382384;28;20053;-65
2022/02/23 19:09:10;;;;;;;15.15;5.47;;;;;;;5.20;54.28;100486.91;10375909;28;20311;-65
2022/02/23 19:14:12;;;;;;;17.27;6.50;;;;;;;5.17;54.79;100496.50;10382359;28;20712;-65
2022/02/23 19:19:14;;;;;;;13.45;5.35;;;;;;;5.11;55.42;100484.56;10382353;28;20241;-64
2022/02/23 19:24:16;;;;;;;13.57;4.65;;;;;;;5.04;56.04;100489.97;10381567;28;20912;-64
2022/02/23 19:29:19;;;;;;;13.20;5.35;;;;;;;4.98;56.51;100492.75;10381986;28;20354;-65
2022/02/23 19:34:21;;;;;;;10.73;4.22;;;;;;;4.87;56.71;100485.25;10383052;28;20061;-65
2022/02/23 19:39:23;;;;;;;9.52;4.00;;;;;;;4.72;57.21;100496.03;10382347;28;20042;-64
2022/02/23 19:44:25;;;;;;;10.27;3.92;;;;;;;4.68;57.47;100484.91;10387646;28;20449;-64
2022/02/23 19:49:27;;;;;;;14.75;6.68;;;;;;;4.63;57.61;100485.94;10390696;28;20049;-64
2022/02/23 19:54:29;;;;;;;15.55;7.70;;;;;;;4.56;57.76;100487.84;10390245;28;20656;-64
2022/02/23 19:59:31;;;;;;;10.82;4.10;;;;;;;4.46;57.92;100486.38;10390716;28;20498;-64
2022/02/23 20:04:32;;;;;;;11.80;3.83;;;;;;;4.45;58.05;100482.09;10390298;28;20053;-65
2022/02/23 20:09:36;;;;;;;10.38;3.17;;;;;;;4.42;58.57;100478.72;10390512;28;20077;-64
2022/02/23 20:14:38;;;;;;;11.77;3.58;;;;;;;4.40;58.47;100475.31;10390215;28;20385;-64
2022/02/23 20:19:39;;;;;;;12.05;3.90;;;;;;;4.30;58.57;100463.50;10389459;28;20048;-64
2022/02/23 20:24:41;;;;;;;14.20;4.65;;;;;;;4.26;59.02;100464.47;10388446;28;20426;-64
2022/02/23 20:29:43;;;;;;;18.33;7.00;;;;;;;4.30;59.05;100454.00;10389811;28;20486;-64
2022/02/23 20:34:45;;;;;;;14.00;5.75;;;;;;;4.45;58.96;100448.44;10388355;28;20053;-64
2022/02/23 20:39:47;;;;;;;13.65;5.60;;;;;;;4.56;58.93;100448.97;10387976;28;20502;-64
2022/02/23 20:44:49;;;;;;;15.10;5.32;;;;;;;4.57;58.58;100442.94;10388311;28;20197;-64
2022/02/23 20:49:52;;;;;;;13.32;4.75;;;;;;;4.64;58.92;100443.59;10388019;28;20045;-64
2022/02/23 20:54:54;;;;;;;10.85;3.95;;;;;;;4.72;58.60;100432.13;10387250;28;20428;-64
2022/02/23 20:59:57;;;;;;;9.48;3.72;;;;;;;4.77;58.65;100420.78;10388487;28;20096;-65
2022/02/23 21:04:59;;;;;;;11.43;4.20;;;;;;;4.78;58.70;100412.13;10387614;28;20456;-64
2022/02/23 21:10:02;;;;;;;10.45;4.15;;;;;;;4.72;58.62;100401.03;10387875;28;20461;-64
2022/02/23 21:15:04;;;;;;;12.23;4.47;;;;;;;4.61;58.51;100400.50;10380043;28;20055;-64
2022/02/23 21:20:10;;;;;;;10.70;3.92;;;;;;;4.62;58.88;100407.38;10382996;28;20152;-64
2022/02/23 21:25:13;;;;;;;10.98;4.13;;;;;;;4.59;58.76;100393.66;10386714;28;20050;-64
2022/02/23 21:30:17;;;;;;;11.43;4.68;;;;;;;4.39;59.35;100386.41;10385938;28;20057;-65
2022/02/23 21:35:20;;;;;;;17.55;7.50;;;;;;;4.42;59.82;100394.13;10386516;28;20089;-65
2022/02/23 21:40:22;;;;;;;19.65;10.02;;;;;;;4.51;59.61;100396.47;10386598;28;20050;-64
2022/02/23 21:45:24;;;;;;;14.25;7.40;;;;;;;4.63;59.68;100390.09;10387066;28;20049;-64
2022/02/23 21:50:28;;;;;;;13.05;5.60;;;;;;;4.74;59.35;100387.19;10386008;28;20140;-64
2022/02/23 21:55:31;;;;;;;10.20;4.00;;;;;;;4.61;59.50;100390.13;10385594;28;20045;-65
2022/02/23 22:00:32;;;;;;;12.30;4.57;;;;;;;4.71;59.71;100390.72;10386897;28;20054;-65
2022/02/23 22:05:34;;;;;;;15.85;4.55;;;;;;;4.76;59.25;100377.63;10386656;28;20183;-65
2022/02/23 22:10:36;;;;;;;12.15;4.15;;;;;;;4.79;59.37;100369.75;10385914;28;20059;-65
2022/02/23 22:15:38;;;;;;;9.18;4.20;;;;;;;4.92;59.10;100364.19;10386014;28;20053;-65
2022/02/23 22:20:40;;;;;;;13.13;4.10;;;;;;;5.04;59.08;100363.81;10382317;28;20049;-65
2022/02/23 22:25:43;;;;;;;11.57;4.10;;;;;;;5.09;59.02;100348.97;10381203;28;20144;-68
2022/02/23 22:30:44;;;;;;;14.13;6.13;;;;;;;5.15;58.96;100347.91;10382794;28;20574;-67
2022/02/23 22:35:47;;;;;;;15.05;5.60;;;;;;;5.20;59.05;100338.25;10384112;28;20049;-67
2022/02/23 22:40:48;;;;;;;11.77;5.70;;;;;;;5.15;58.80;100338.41;10384059;28;20049;-67
2022/02/23 22:45:52;;;;;;;12.27;5.90;;;;;;;4.80;60.17;100332.59;10383657;28;20049;-68
2022/02/23 22:50:54;;;;;;;12.45;5.05;;;;;;;4.81;60.48;100331.69;10384181;28;20052;-67
2022/02/23 22:55:56;;;;;;;14.73;5.53;;;;;;;4.90;60.35;100327.09;10383930;28;20063;-67
2022/02/23 23:00:59;;;;;;;13.80;6.22;;;;;;;5.04;59.85;100316.31;10382843;28;20045;-68
2022/02/23 23:06:17;;;;;;;12.50;5.50;;;;;;;4.88;60.41;100308.16;10383301;28;20285;-67
2022/02/23 23:11:22;;;;;;;10.40;5.30;;;;;;;4.95;60.28;100304.47;10381256;28;20060;-68
2022/02/23 23:16:25;;;;;;;11.55;5.45;;;;;;;4.90;60.51;100303.78;10384260;28;20050;-67